sensor_id;sensor_type;location;lat;lon;timestamp;pressure;altitude;pressure_sealevel;temperature;humidity
64711;BME280;51139;45.626;6.850;2023-04-03T08:04:29;81656.41;;;6.03;57.99
64711;BME280;51139;45.626;6.850;2023-04-03T08:06:55;81660.72;;;5.75;58.13
64711;BME280;51139;45.626;6.850;2023-04-03T08:09:21;81658.03;;;5.42;58.28
64711;BME280;51139;45.626;6.850;2023-04-03T08:11:47;81660.28;;;5.45;67.97
64711;BME280;51139;45.626;6.850;2023-04-03T08:14:13;81664.53;;;5.33;69.13
64711;BME280;51139;45.626;6.850;2023-04-03T08:16:43;81658.28;;;5.05;70.04
64711;BME280;51139;45.626;6.850;2023-04-03T08:19:10;81654.81;;;4.63;76.45
64711;BME280;51139;45.626;6.850;2023-04-03T08:21:36;81662.19;;;4.49;78.81
64711;BME280;51139;45.626;6.850;2023-04-03T08:24:01;81656.75;;;4.47;81.29
64711;BME280;51139;45.626;6.850;2023-04-03T08:26:28;81661.69;;;3.23;84.13
64711;BME280;51139;45.626;6.850;2023-04-03T08:28:53;81670.81;;;3.90;85.39
64711;BME280;51139;45.626;6.850;2023-04-03T08:31:19;81665.00;;;3.68;90.10
64711;BME280;51139;45.626;6.850;2023-04-03T08:33:45;81675.84;;;3.72;84.92
64711;BME280;51139;45.626;6.850;2023-04-03T08:36:28;81674.63;;;3.73;81.28
64711;BME280;51139;45.626;6.850;2023-04-03T08:38:55;81681.59;;;3.63;83.59
64711;BME280;51139;45.626;6.850;2023-04-03T08:41:35;81667.16;;;3.85;78.97
64711;BME280;51139;45.626;6.850;2023-04-03T08:46:59;81672.00;;;3.65;87.39
64711;BME280;51139;45.626;6.850;2023-04-03T08:49:39;81681.25;;;3.67;84.01
64711;BME280;51139;45.626;6.850;2023-04-03T08:52:11;81680.25;;;3.85;83.04
64711;BME280;51139;45.626;6.850;2023-04-03T08:54:49;81683.13;;;4.11;79.25
64711;BME280;51139;45.626;6.850;2023-04-03T08:57:17;81683.47;;;3.55;81.65
64711;BME280;51139;45.626;6.850;2023-04-03T08:59:45;81684.38;;;3.65;84.84
64711;BME280;51139;45.626;6.850;2023-04-03T09:02:29;81680.09;;;3.91;74.88
64711;BME280;51139;45.626;6.850;2023-04-03T09:04:55;81675.63;;;4.53;65.90
64711;BME280;51139;45.626;6.850;2023-04-03T09:08:26;81680.00;;;4.66;63.71
64711;BME280;51139;45.626;6.850;2023-04-03T09:10:42;81677.97;;;3.74;62.71
64711;BME280;51139;45.626;6.850;2023-04-03T09:13:19;81675.38;;;3.97;63.20
64711;BME280;51139;45.626;6.850;2023-04-03T09:15:47;81678.06;;;4.28;65.99
64711;BME280;51139;45.626;6.850;2023-04-03T09:20:45;81679.97;;;4.20;64.71
64711;BME280;51139;45.626;6.850;2023-04-03T09:26:07;81666.91;;;4.59;67.42
64711;BME280;51139;45.626;6.850;2023-04-03T09:28:38;81670.19;;;4.82;64.63
64711;BME280;51139;45.626;6.850;2023-04-03T09:31:16;81673.50;;;4.83;69.54
64711;BME280;51139;45.626;6.850;2023-04-03T09:33:43;81675.25;;;4.26;71.00
64711;BME280;51139;45.626;6.850;2023-04-03T09:36:10;81677.75;;;4.63;69.08
64711;BME280;51139;45.626;6.850;2023-04-03T09:38:36;81675.94;;;4.03;69.13
64711;BME280;51139;45.626;6.850;2023-04-03T09:41:03;81685.41;;;4.68;68.58
64711;BME280;51139;45.626;6.850;2023-04-03T09:43:32;81677.91;;;4.73;66.23
64711;BME280;51139;45.626;6.850;2023-04-03T09:46:32;81676.47;;;5.10;62.56
64711;BME280;51139;45.626;6.850;2023-04-03T09:49:05;81677.53;;;5.15;65.11
64711;BME280;51139;45.626;6.850;2023-04-03T09:51:31;81675.63;;;4.61;62.85
64711;BME280;51139;45.626;6.850;2023-04-03T09:53:58;81674.22;;;4.76;61.34
64711;BME280;51139;45.626;6.850;2023-04-03T09:56:29;81680.88;;;4.46;66.27
64711;BME280;51139;45.626;6.850;2023-04-03T10:01:33;81677.03;;;4.47;68.75
64711;BME280;51139;45.626;6.850;2023-04-03T10:04:08;81665.66;;;4.67;60.06
64711;BME280;51139;45.626;6.850;2023-04-03T10:06:40;81670.72;;;4.65;58.49
64711;BME280;51139;45.626;6.850;2023-04-03T10:14:33;81667.59;;;4.44;59.67
64711;BME280;51139;45.626;6.850;2023-04-03T10:17:02;81673.84;;;4.09;71.74
64711;BME280;51139;45.626;6.850;2023-04-03T10:19:55;81668.97;;;3.54;69.91
64711;BME280;51139;45.626;6.850;2023-04-03T10:22:38;81674.22;;;2.51;78.89
64711;BME280;51139;45.626;6.850;2023-04-03T10:28:05;81671.06;;;3.11;80.27
64711;BME280;51139;45.626;6.850;2023-04-03T10:30:41;81673.91;;;3.20;87.49
64711;BME280;51139;45.626;6.850;2023-04-03T10:35:44;81661.97;;;4.16;86.38
64711;BME280;51139;45.626;6.850;2023-04-03T10:38:33;81657.09;;;4.67;84.53
64711;BME280;51139;45.626;6.850;2023-04-03T10:44:14;81655.69;;;4.81;73.79
64711;BME280;51139;45.626;6.850;2023-04-03T10:46:48;81656.91;;;4.34;70.89
64711;BME280;51139;45.626;6.850;2023-04-03T10:52:37;81655.44;;;3.94;86.31
64711;BME280;51139;45.626;6.850;2023-04-03T10:55:33;81656.28;;;3.73;92.44
64711;BME280;51139;45.626;6.850;2023-04-03T10:58:02;81653.06;;;4.12;91.90
64711;BME280;51139;45.626;6.850;2023-04-03T11:00:47;81644.81;;;4.00;87.81
64711;BME280;51139;45.626;6.850;2023-04-03T11:03:17;81641.53;;;4.15;85.63
64711;BME280;51139;45.626;6.850;2023-04-03T11:05:52;81643.00;;;3.63;91.47
64711;BME280;51139;45.626;6.850;2023-04-03T11:11:05;81645.94;;;3.60;93.67
64711;BME280;51139;45.626;6.850;2023-04-03T11:13:33;81645.13;;;3.80;95.81
64711;BME280;51139;45.626;6.850;2023-04-03T11:16:00;81636.63;;;4.50;84.03
64711;BME280;51139;45.626;6.850;2023-04-03T11:18:32;81625.44;;;4.65;82.83
64711;BME280;51139;45.626;6.850;2023-04-03T11:21:12;81637.16;;;4.25;82.31
64711;BME280;51139;45.626;6.850;2023-04-03T11:23:39;81631.19;;;4.24;85.33
64711;BME280;51139;45.626;6.850;2023-04-03T11:26:14;81627.81;;;5.09;74.59
64711;BME280;51139;45.626;6.850;2023-04-03T11:28:41;81634.00;;;5.53;77.34
64711;BME280;51139;45.626;6.850;2023-04-03T11:34:15;81619.97;;;5.58;76.32
64711;BME280;51139;45.626;6.850;2023-04-03T11:36:55;81627.81;;;5.66;69.54
64711;BME280;51139;45.626;6.850;2023-04-03T11:39:35;81626.31;;;4.52;79.74
64711;BME280;51139;45.626;6.850;2023-04-03T11:42:32;81621.59;;;4.27;89.91
64711;BME280;51139;45.626;6.850;2023-04-03T11:47:59;81621.94;;;4.47;85.14
64711;BME280;51139;45.626;6.850;2023-04-03T11:50:45;81621.03;;;4.99;79.77
64711;BME280;51139;45.626;6.850;2023-04-03T11:55:55;81617.00;;;4.97;75.37
64711;BME280;51139;45.626;6.850;2023-04-03T11:58:29;81613.78;;;5.30;71.20
64711;BME280;51139;45.626;6.850;2023-04-03T12:01:09;81608.31;;;5.36;68.73
64711;BME280;51139;45.626;6.850;2023-04-03T12:45:41;81580.81;;;4.88;67.51
64711;BME280;51139;45.626;6.850;2023-04-03T12:48:14;81572.41;;;4.82;65.57
64711;BME280;51139;45.626;6.850;2023-04-03T12:50:41;81573.09;;;4.90;65.91
64711;BME280;51139;45.626;6.850;2023-04-03T12:53:15;81581.31;;;5.43;69.70
64711;BME280;51139;45.626;6.850;2023-04-03T12:55:42;81580.19;;;4.02;67.61
64711;BME280;51139;45.626;6.850;2023-04-03T12:58:15;81566.53;;;3.88;69.24
64711;BME280;51139;45.626;6.850;2023-04-03T13:00:42;81569.50;;;4.39;68.33
64711;BME280;51139;45.626;6.850;2023-04-03T13:03:22;81567.94;;;5.16;64.57
64711;BME280;51139;45.626;6.850;2023-04-03T13:05:49;81565.66;;;4.48;64.57
64711;BME280;51139;45.626;6.850;2023-04-03T13:08:15;81568.81;;;4.46;67.39
64711;BME280;51139;45.626;6.850;2023-04-03T13:13:26;81560.91;;;4.54;65.80
64711;BME280;51139;45.626;6.850;2023-04-03T13:15:52;81557.09;;;4.32;69.62
64711;BME280;51139;45.626;6.850;2023-04-03T13:18:30;81556.00;;;4.58;65.98
64711;BME280;51139;45.626;6.850;2023-04-03T13:21:07;81552.78;;;4.91;67.78
64711;BME280;51139;45.626;6.850;2023-04-03T13:23:36;81546.47;;;5.43;63.56
64711;BME280;51139;45.626;6.850;2023-04-03T13:26:04;81548.66;;;5.21;65.49
64711;BME280;51139;45.626;6.850;2023-04-03T13:28:32;81540.16;;;5.05;71.44
64711;BME280;51139;45.626;6.850;2023-04-03T13:34:11;81538.81;;;4.80;73.35
64711;BME280;51139;45.626;6.850;2023-04-03T13:36:40;81536.88;;;5.37;68.94
64711;BME280;51139;45.626;6.850;2023-04-03T13:39:07;81537.00;;;5.47;68.07
64711;BME280;51139;45.626;6.850;2023-04-03T13:41:48;81535.19;;;4.68;66.05
64711;BME280;51139;45.626;6.850;2023-04-03T13:46:46;81526.47;;;4.58;74.34
64711;BME280;51139;45.626;6.850;2023-04-03T13:51:52;81520.06;;;4.20;77.05
64711;BME280;51139;45.626;6.850;2023-04-03T13:54:22;81524.25;;;4.23;71.43
64711;BME280;51139;45.626;6.850;2023-04-03T13:56:54;81520.88;;;4.38;74.88
64711;BME280;51139;45.626;6.850;2023-04-03T13:59:22;81524.66;;;4.84;75.99
64711;BME280;51139;45.626;6.850;2023-04-03T14:04:31;81520.31;;;5.19;70.13
64711;BME280;51139;45.626;6.850;2023-04-03T14:06:57;81517.03;;;5.11;67.71
64711;BME280;51139;45.626;6.850;2023-04-03T14:09:25;81519.16;;;5.05;66.40
64711;BME280;51139;45.626;6.850;2023-04-03T14:11:54;81512.59;;;4.73;68.39
64711;BME280;51139;45.626;6.850;2023-04-03T14:14:23;81507.28;;;4.32;70.60
64711;BME280;51139;45.626;6.850;2023-04-03T14:16:54;81509.75;;;4.22;78.16
64711;BME280;51139;45.626;6.850;2023-04-03T14:19:23;81505.63;;;4.67;70.40
64711;BME280;51139;45.626;6.850;2023-04-03T14:21:49;81504.75;;;5.14;63.81
64711;BME280;51139;45.626;6.850;2023-04-03T14:24:16;81503.81;;;4.93;62.90
64711;BME280;51139;45.626;6.850;2023-04-03T14:26:43;81512.19;;;4.92;68.46
64711;BME280;51139;45.626;6.850;2023-04-03T14:29:09;81508.19;;;5.32;66.08
64711;BME280;51139;45.626;6.850;2023-04-03T14:31:35;81502.19;;;4.98;64.48
64711;BME280;51139;45.626;6.850;2023-04-03T14:34:01;81503.34;;;5.20;60.77
64711;BME280;51139;45.626;6.850;2023-04-03T14:36:28;81488.41;;;4.82;66.29
64711;BME280;51139;45.626;6.850;2023-04-03T14:38:55;81496.47;;;4.84;69.66
64711;BME280;51139;45.626;6.850;2023-04-03T14:41:23;81493.09;;;4.99;67.74
64711;BME280;51139;45.626;6.850;2023-04-03T14:43:50;81488.47;;;5.48;65.18
64711;BME280;51139;45.626;6.850;2023-04-03T14:46:37;81483.59;;;5.45;64.50
64711;BME280;51139;45.626;6.850;2023-04-03T14:49:10;81487.34;;;5.26;60.48
64711;BME280;51139;45.626;6.850;2023-04-03T14:51:37;81487.72;;;5.55;62.33
64711;BME280;51139;45.626;6.850;2023-04-03T14:54:03;81480.50;;;5.64;61.61
64711;BME280;51139;45.626;6.850;2023-04-03T14:56:29;81472.13;;;5.58;62.44
64711;BME280;51139;45.626;6.850;2023-04-03T14:58:59;81472.50;;;5.21;58.73
64711;BME280;51139;45.626;6.850;2023-04-03T15:01:26;81473.22;;;5.21;63.32
64711;BME280;51139;45.626;6.850;2023-04-03T15:03:52;81470.53;;;5.29;62.29
64711;BME280;51139;45.626;6.850;2023-04-03T15:06:17;81467.47;;;5.15;62.18
64711;BME280;51139;45.626;6.850;2023-04-03T15:08:45;81477.03;;;5.28;65.05
64711;BME280;51139;45.626;6.850;2023-04-03T15:11:11;81469.44;;;5.07;64.76
64711;BME280;51139;45.626;6.850;2023-04-03T15:13:37;81471.19;;;5.04;67.93
64711;BME280;51139;45.626;6.850;2023-04-03T15:16:04;81472.47;;;5.29;61.11
64711;BME280;51139;45.626;6.850;2023-04-03T15:18:35;81463.78;;;5.18;63.09
64711;BME280;51139;45.626;6.850;2023-04-03T15:21:02;81474.59;;;4.89;65.08
64711;BME280;51139;45.626;6.850;2023-04-03T15:23:27;81466.16;;;5.32;66.73
64711;BME280;51139;45.626;6.850;2023-04-03T15:25:55;81463.16;;;5.35;67.63
64711;BME280;51139;45.626;6.850;2023-04-03T15:28:26;81470.22;;;5.83;61.97
64711;BME280;51139;45.626;6.850;2023-04-03T15:30:52;81462.75;;;5.72;59.61
64711;BME280;51139;45.626;6.850;2023-04-03T15:33:18;81464.81;;;5.81;58.35
64711;BME280;51139;45.626;6.850;2023-04-03T15:35:44;81467.63;;;5.17;56.93
64711;BME280;51139;45.626;6.850;2023-04-03T15:38:10;81457.66;;;5.16;59.21
64711;BME280;51139;45.626;6.850;2023-04-03T15:40:36;81459.97;;;5.45;59.68
64711;BME280;51139;45.626;6.850;2023-04-03T15:43:01;81452.97;;;5.06;61.27
64711;BME280;51139;45.626;6.850;2023-04-03T15:45:30;81458.28;;;4.99;63.04
64711;BME280;51139;45.626;6.850;2023-04-03T15:47:56;81445.50;;;4.62;63.46
64711;BME280;51139;45.626;6.850;2023-04-03T15:50:22;81448.88;;;4.88;61.55
64711;BME280;51139;45.626;6.850;2023-04-03T15:52:51;81443.13;;;4.33;61.69
64711;BME280;51139;45.626;6.850;2023-04-03T15:55:24;81444.53;;;4.26;63.00
64711;BME280;51139;45.626;6.850;2023-04-03T15:57:49;81451.84;;;4.84;61.93
64711;BME280;51139;45.626;6.850;2023-04-03T16:00:15;81439.94;;;4.91;59.45
64711;BME280;51139;45.626;6.850;2023-04-03T16:02:42;81441.94;;;5.41;59.19
64711;BME280;51139;45.626;6.850;2023-04-03T16:05:09;81429.25;;;5.55;57.31
64711;BME280;51139;45.626;6.850;2023-04-03T16:07:38;81440.75;;;4.68;59.27
64711;BME280;51139;45.626;6.850;2023-04-03T16:10:04;81437.63;;;4.62;61.87
64711;BME280;51139;45.626;6.850;2023-04-03T16:12:30;81436.94;;;5.28;60.05
64711;BME280;51139;45.626;6.850;2023-04-03T16:14:55;81424.78;;;5.40;60.20
64711;BME280;51139;45.626;6.850;2023-04-03T16:17:21;81431.41;;;5.16;60.80
64711;BME280;51139;45.626;6.850;2023-04-03T16:19:46;81426.81;;;5.49;60.55
64711;BME280;51139;45.626;6.850;2023-04-03T16:22:12;81427.56;;;4.76;60.25
64711;BME280;51139;45.626;6.850;2023-04-03T16:24:37;81431.94;;;4.32;62.20
64711;BME280;51139;45.626;6.850;2023-04-03T16:27:03;81433.00;;;4.29;64.79
64711;BME280;51139;45.626;6.850;2023-04-03T16:29:29;81429.69;;;4.70;66.93
64711;BME280;51139;45.626;6.850;2023-04-03T16:31:56;81435.25;;;4.81;67.06
64711;BME280;51139;45.626;6.850;2023-04-03T16:34:22;81422.75;;;4.97;67.37
64711;BME280;51139;45.626;6.850;2023-04-03T16:36:48;81424.09;;;5.06;65.06
64711;BME280;51139;45.626;6.850;2023-04-03T16:39:13;81428.94;;;4.85;65.22
64711;BME280;51139;45.626;6.850;2023-04-03T16:41:39;81425.31;;;4.72;65.48
64711;BME280;51139;45.626;6.850;2023-04-03T16:44:05;81419.06;;;5.01;64.52
64711;BME280;51139;45.626;6.850;2023-04-03T16:46:32;81427.75;;;5.11;62.83
64711;BME280;51139;45.626;6.850;2023-04-03T16:48:57;81425.59;;;4.84;63.79
64711;BME280;51139;45.626;6.850;2023-04-03T16:51:23;81424.50;;;5.28;63.36
64711;BME280;51139;45.626;6.850;2023-04-03T16:53:48;81424.09;;;5.06;62.72
64711;BME280;51139;45.626;6.850;2023-04-03T16:56:14;81440.56;;;4.66;66.79
64711;BME280;51139;45.626;6.850;2023-04-03T16:58:39;81428.53;;;3.99;69.18
64711;BME280;51139;45.626;6.850;2023-04-03T17:01:10;81429.31;;;4.24;70.22
64711;BME280;51139;45.626;6.850;2023-04-03T17:03:36;81432.53;;;4.00;71.78
64711;BME280;51139;45.626;6.850;2023-04-03T17:06:01;81423.69;;;3.64;74.48
64711;BME280;51139;45.626;6.850;2023-04-03T17:08:26;81430.69;;;3.23;78.65
64711;BME280;51139;45.626;6.850;2023-04-03T17:10:52;81429.41;;;3.08;81.72
64711;BME280;51139;45.626;6.850;2023-04-03T17:13:18;81433.28;;;3.77;79.99
64711;BME280;51139;45.626;6.850;2023-04-03T17:15:44;81431.03;;;3.65;79.36
64711;BME280;51139;45.626;6.850;2023-04-03T17:18:09;81431.19;;;3.21;83.72
64711;BME280;51139;45.626;6.850;2023-04-03T17:20:35;81436.94;;;3.12;87.47
64711;BME280;51139;45.626;6.850;2023-04-03T17:23:03;81430.66;;;3.77;85.44
64711;BME280;51139;45.626;6.850;2023-04-03T17:25:28;81425.78;;;3.27;87.38
64711;BME280;51139;45.626;6.850;2023-04-03T17:27:54;81429.44;;;3.70;87.01
64711;BME280;51139;45.626;6.850;2023-04-03T17:30:19;81427.34;;;3.69;84.16
64711;BME280;51139;45.626;6.850;2023-04-03T17:32:45;81430.66;;;3.15;83.79
64711;BME280;51139;45.626;6.850;2023-04-03T17:35:10;81429.44;;;3.31;85.82
64711;BME280;51139;45.626;6.850;2023-04-03T17:37:35;81418.09;;;3.36;87.90
64711;BME280;51139;45.626;6.850;2023-04-03T17:40:01;81426.44;;;3.04;90.83
64711;BME280;51139;45.626;6.850;2023-04-03T17:42:27;81423.47;;;3.00;91.77
64711;BME280;51139;45.626;6.850;2023-04-03T17:44:55;81421.22;;;2.96;94.64
64711;BME280;51139;45.626;6.850;2023-04-03T17:47:20;81423.50;;;3.08;94.18
64711;BME280;51139;45.626;6.850;2023-04-03T17:49:46;81415.56;;;2.53;95.73
64711;BME280;51139;45.626;6.850;2023-04-03T17:52:11;81419.75;;;2.64;95.77
64711;BME280;51139;45.626;6.850;2023-04-03T17:54:36;81424.38;;;3.02;94.75
64711;BME280;51139;45.626;6.850;2023-04-03T17:57:02;81416.19;;;2.30;100.00
64711;BME280;51139;45.626;6.850;2023-04-03T17:59:28;81416.13;;;2.67;99.97
64711;BME280;51139;45.626;6.850;2023-04-03T18:01:54;81423.91;;;2.52;99.71
64711;BME280;51139;45.626;6.850;2023-04-03T18:04:20;81416.78;;;2.52;100.00
64711;BME280;51139;45.626;6.850;2023-04-03T18:06:48;81426.44;;;2.21;100.00
64711;BME280;51139;45.626;6.850;2023-04-03T18:09:17;81418.41;;;2.86;100.00
64711;BME280;51139;45.626;6.850;2023-04-03T18:11:45;81418.72;;;2.59;100.00
64711;BME280;51139;45.626;6.850;2023-04-03T18:14:13;81427.69;;;2.27;100.00
64711;BME280;51139;45.626;6.850;2023-04-03T18:16:40;81430.38;;;2.06;100.00
64711;BME280;51139;45.626;6.850;2023-04-03T18:19:05;81423.13;;;2.28;100.00
64711;BME280;51139;45.626;6.850;2023-04-03T18:21:31;81415.44;;;2.74;100.00
64711;BME280;51139;45.626;6.850;2023-04-03T18:23:57;81420.78;;;2.53;100.00
64711;BME280;51139;45.626;6.850;2023-04-03T18:26:25;81421.06;;;2.34;100.00
64711;BME280;51139;45.626;6.850;2023-04-03T18:28:56;81428.13;;;2.62;100.00
64711;BME280;51139;45.626;6.850;2023-04-03T18:31:24;81427.38;;;2.46;100.00
64711;BME280;51139;45.626;6.850;2023-04-03T18:33:50;81420.94;;;2.47;100.00
64711;BME280;51139;45.626;6.850;2023-04-03T18:36:19;81422.78;;;2.99;100.00
64711;BME280;51139;45.626;6.850;2023-04-03T18:38:44;81417.22;;;3.18;100.00
64711;BME280;51139;45.626;6.850;2023-04-03T18:41:10;81425.75;;;3.03;100.00
64711;BME280;51139;45.626;6.850;2023-04-03T18:43:36;81425.38;;;2.84;100.00
64711;BME280;51139;45.626;6.850;2023-04-03T18:46:02;81433.94;;;2.24;100.00
64711;BME280;51139;45.626;6.850;2023-04-03T18:48:29;81438.22;;;2.06;100.00
64711;BME280;51139;45.626;6.850;2023-04-03T18:50:55;81441.69;;;2.09;100.00
64711;BME280;51139;45.626;6.850;2023-04-03T18:53:21;81436.63;;;2.03;100.00
64711;BME280;51139;45.626;6.850;2023-04-03T18:55:46;81435.31;;;2.17;100.00
64711;BME280;51139;45.626;6.850;2023-04-03T18:58:12;81432.13;;;1.74;100.00
64711;BME280;51139;45.626;6.850;2023-04-03T19:00:38;81430.94;;;1.75;100.00
64711;BME280;51139;45.626;6.850;2023-04-03T19:03:04;81434.09;;;1.53;100.00
64711;BME280;51139;45.626;6.850;2023-04-03T19:05:30;81440.47;;;2.02;100.00
64711;BME280;51139;45.626;6.850;2023-04-03T19:07:56;81436.38;;;1.56;100.00
64711;BME280;51139;45.626;6.850;2023-04-03T19:10:22;81436.94;;;1.63;100.00
